sensor_id;sensor_type;location;lat;lon;timestamp;P1;durP1;ratioP1;P2;durP2;ratioP2
40649;SDS011;26342;42.826;23.992;2023-12-04T00:01:48;2.50;;;1.42;;
40649;SDS011;26342;42.826;23.992;2023-12-04T00:04:14;5.03;;;1.98;;
40649;SDS011;26342;42.826;23.992;2023-12-04T00:06:42;3.50;;;1.92;;
40649;SDS011;26342;42.826;23.992;2023-12-04T00:09:08;4.13;;;2.47;;
40649;SDS011;26342;42.826;23.992;2023-12-04T00:11:34;2.50;;;1.40;;
40649;SDS011;26342;42.826;23.992;2023-12-04T00:13:59;2.42;;;1.60;;
40649;SDS011;26342;42.826;23.992;2023-12-04T00:16:25;3.90;;;2.17;;
40649;SDS011;26342;42.826;23.992;2023-12-04T00:18:51;8.43;;;2.80;;
40649;SDS011;26342;42.826;23.992;2023-12-04T00:21:17;5.05;;;3.47;;
40649;SDS011;26342;42.826;23.992;2023-12-04T00:23:42;3.58;;;1.60;;
40649;SDS011;26342;42.826;23.992;2023-12-04T00:26:09;9.30;;;2.65;;
40649;SDS011;26342;42.826;23.992;2023-12-04T00:28:37;2.30;;;1.58;;
40649;SDS011;26342;42.826;23.992;2023-12-04T00:31:03;3.83;;;2.55;;
40649;SDS011;26342;42.826;23.992;2023-12-04T00:33:28;1.88;;;1.15;;
40649;SDS011;26342;42.826;23.992;2023-12-04T00:35:53;4.10;;;1.63;;
40649;SDS011;26342;42.826;23.992;2023-12-04T00:38:19;2.50;;;1.60;;
40649;SDS011;26342;42.826;23.992;2023-12-04T00:40:44;2.90;;;1.50;;
40649;SDS011;26342;42.826;23.992;2023-12-04T00:43:10;3.50;;;2.00;;
40649;SDS011;26342;42.826;23.992;2023-12-04T00:45:35;14.05;;;1.80;;
40649;SDS011;26342;42.826;23.992;2023-12-04T00:48:02;3.15;;;2.40;;
40649;SDS011;26342;42.826;23.992;2023-12-04T00:50:27;1.60;;;1.30;;
40649;SDS011;26342;42.826;23.992;2023-12-04T00:52:53;3.53;;;1.58;;
40649;SDS011;26342;42.826;23.992;2023-12-04T00:55:19;2.63;;;1.73;;
40649;SDS011;26342;42.826;23.992;2023-12-04T00:57:45;4.95;;;2.63;;
40649;SDS011;26342;42.826;23.992;2023-12-04T01:00:12;5.32;;;3.05;;
40649;SDS011;26342;42.826;23.992;2023-12-04T01:02:38;5.47;;;3.20;;
40649;SDS011;26342;42.826;23.992;2023-12-04T01:05:05;7.82;;;2.90;;
40649;SDS011;26342;42.826;23.992;2023-12-04T01:07:31;5.70;;;2.67;;
40649;SDS011;26342;42.826;23.992;2023-12-04T01:09:56;1.67;;;1.27;;
40649;SDS011;26342;42.826;23.992;2023-12-04T01:12:22;3.45;;;1.35;;
40649;SDS011;26342;42.826;23.992;2023-12-04T01:14:47;3.65;;;2.20;;
40649;SDS011;26342;42.826;23.992;2023-12-04T01:17:13;2.38;;;1.02;;
40649;SDS011;26342;42.826;23.992;2023-12-04T01:19:39;2.58;;;1.30;;
40649;SDS011;26342;42.826;23.992;2023-12-04T01:22:06;1.67;;;1.38;;
40649;SDS011;26342;42.826;23.992;2023-12-04T01:24:34;2.83;;;1.17;;
40649;SDS011;26342;42.826;23.992;2023-12-04T01:26:59;3.88;;;2.17;;
40649;SDS011;26342;42.826;23.992;2023-12-04T01:29:26;3.83;;;2.38;;
40649;SDS011;26342;42.826;23.992;2023-12-04T01:31:52;2.30;;;1.40;;
40649;SDS011;26342;42.826;23.992;2023-12-04T01:34:17;4.05;;;2.15;;
40649;SDS011;26342;42.826;23.992;2023-12-04T01:36:46;5.40;;;1.08;;
40649;SDS011;26342;42.826;23.992;2023-12-04T01:39:12;3.45;;;1.20;;
40649;SDS011;26342;42.826;23.992;2023-12-04T01:41:37;0.60;;;0.55;;
40649;SDS011;26342;42.826;23.992;2023-12-04T01:44:02;1.55;;;1.00;;
40649;SDS011;26342;42.826;23.992;2023-12-04T01:46:29;2.53;;;1.73;;
40649;SDS011;26342;42.826;23.992;2023-12-04T01:48:55;2.70;;;1.67;;
40649;SDS011;26342;42.826;23.992;2023-12-04T01:51:21;3.17;;;1.77;;
40649;SDS011;26342;42.826;23.992;2023-12-04T01:53:49;7.30;;;2.33;;
40649;SDS011;26342;42.826;23.992;2023-12-04T01:56:15;2.85;;;1.55;;
40649;SDS011;26342;42.826;23.992;2023-12-04T01:58:43;4.05;;;1.30;;
40649;SDS011;26342;42.826;23.992;2023-12-04T02:01:09;3.22;;;1.67;;
40649;SDS011;26342;42.826;23.992;2023-12-04T02:03:36;3.88;;;1.67;;
40649;SDS011;26342;42.826;23.992;2023-12-04T02:06:02;2.50;;;1.45;;
40649;SDS011;26342;42.826;23.992;2023-12-04T02:08:29;2.88;;;2.20;;
40649;SDS011;26342;42.826;23.992;2023-12-04T02:10:55;2.55;;;1.27;;
40649;SDS011;26342;42.826;23.992;2023-12-04T02:13:21;3.97;;;1.52;;
40649;SDS011;26342;42.826;23.992;2023-12-04T02:15:49;5.30;;;2.33;;
40649;SDS011;26342;42.826;23.992;2023-12-04T02:18:18;3.33;;;1.50;;
40649;SDS011;26342;42.826;23.992;2023-12-04T02:20:44;3.65;;;1.88;;
40649;SDS011;26342;42.826;23.992;2023-12-04T02:23:09;3.45;;;1.80;;
40649;SDS011;26342;42.826;23.992;2023-12-04T02:25:35;2.50;;;1.48;;
40649;SDS011;26342;42.826;23.992;2023-12-04T02:28:04;5.20;;;2.28;;
40649;SDS011;26342;42.826;23.992;2023-12-04T02:30:32;2.95;;;1.38;;
40649;SDS011;26342;42.826;23.992;2023-12-04T02:33:03;1.92;;;1.40;;
40649;SDS011;26342;42.826;23.992;2023-12-04T02:35:31;3.13;;;1.85;;
40649;SDS011;26342;42.826;23.992;2023-12-04T02:38:00;5.13;;;2.72;;
40649;SDS011;26342;42.826;23.992;2023-12-04T02:40:27;3.10;;;1.67;;
40649;SDS011;26342;42.826;23.992;2023-12-04T02:42:53;3.53;;;1.58;;
40649;SDS011;26342;42.826;23.992;2023-12-04T02:45:19;2.08;;;1.38;;
40649;SDS011;26342;42.826;23.992;2023-12-04T02:47:44;3.47;;;1.67;;
40649;SDS011;26342;42.826;23.992;2023-12-04T02:50:10;3.28;;;1.13;;
40649;SDS011;26342;42.826;23.992;2023-12-04T02:52:36;1.50;;;1.02;;
40649;SDS011;26342;42.826;23.992;2023-12-04T02:55:01;3.17;;;1.95;;
40649;SDS011;26342;42.826;23.992;2023-12-04T02:57:30;4.80;;;1.80;;
40649;SDS011;26342;42.826;23.992;2023-12-04T02:59:55;2.60;;;1.35;;
40649;SDS011;26342;42.826;23.992;2023-12-04T03:02:20;1.27;;;0.90;;
40649;SDS011;26342;42.826;23.992;2023-12-04T03:04:47;2.53;;;1.58;;
40649;SDS011;26342;42.826;23.992;2023-12-04T03:07:13;2.30;;;1.17;;
40649;SDS011;26342;42.826;23.992;2023-12-04T03:09:39;5.18;;;1.42;;
40649;SDS011;26342;42.826;23.992;2023-12-04T03:12:05;7.50;;;1.40;;
40649;SDS011;26342;42.826;23.992;2023-12-04T03:14:31;3.92;;;0.77;;
40649;SDS011;26342;42.826;23.992;2023-12-04T03:16:56;2.10;;;1.10;;
40649;SDS011;26342;42.826;23.992;2023-12-04T03:19:22;1.02;;;0.80;;
40649;SDS011;26342;42.826;23.992;2023-12-04T03:21:48;3.42;;;1.00;;
40649;SDS011;26342;42.826;23.992;2023-12-04T03:24:13;7.00;;;2.38;;
40649;SDS011;26342;42.826;23.992;2023-12-04T03:26:40;2.83;;;1.73;;
40649;SDS011;26342;42.826;23.992;2023-12-04T03:29:06;1.45;;;0.80;;
40649;SDS011;26342;42.826;23.992;2023-12-04T03:31:31;2.75;;;1.60;;
40649;SDS011;26342;42.826;23.992;2023-12-04T03:33:59;1.60;;;1.13;;
40649;SDS011;26342;42.826;23.992;2023-12-04T03:36:24;2.58;;;1.30;;
40649;SDS011;26342;42.826;23.992;2023-12-04T03:38:50;2.45;;;1.40;;
40649;SDS011;26342;42.826;23.992;2023-12-04T03:41:16;1.80;;;1.02;;
40649;SDS011;26342;42.826;23.992;2023-12-04T03:43:41;2.50;;;1.30;;
40649;SDS011;26342;42.826;23.992;2023-12-04T03:46:08;3.92;;;1.48;;
40649;SDS011;26342;42.826;23.992;2023-12-04T03:48:33;1.67;;;0.82;;
40649;SDS011;26342;42.826;23.992;2023-12-04T03:50:59;1.48;;;1.23;;
40649;SDS011;26342;42.826;23.992;2023-12-04T03:53:25;0.85;;;0.57;;
40649;SDS011;26342;42.826;23.992;2023-12-04T03:55:53;2.03;;;1.48;;
40649;SDS011;26342;42.826;23.992;2023-12-04T03:58:19;1.85;;;0.80;;
40649;SDS011;26342;42.826;23.992;2023-12-04T04:00:44;3.95;;;1.40;;
40649;SDS011;26342;42.826;23.992;2023-12-04T04:03:10;0.60;;;0.60;;
40649;SDS011;26342;42.826;23.992;2023-12-04T04:05:40;0.90;;;0.50;;
40649;SDS011;26342;42.826;23.992;2023-12-04T04:08:05;1.60;;;0.90;;
40649;SDS011;26342;42.826;23.992;2023-12-04T04:10:33;3.33;;;1.40;;
40649;SDS011;26342;42.826;23.992;2023-12-04T04:12:59;1.05;;;0.82;;
40649;SDS011;26342;42.826;23.992;2023-12-04T04:15:25;2.13;;;1.25;;
40649;SDS011;26342;42.826;23.992;2023-12-04T04:17:51;1.38;;;1.10;;
40649;SDS011;26342;42.826;23.992;2023-12-04T04:20:17;1.02;;;0.65;;
40649;SDS011;26342;42.826;23.992;2023-12-04T04:22:42;0.82;;;0.55;;
40649;SDS011;26342;42.826;23.992;2023-12-04T04:25:08;1.48;;;1.02;;
40649;SDS011;26342;42.826;23.992;2023-12-04T04:27:35;2.38;;;1.00;;
40649;SDS011;26342;42.826;23.992;2023-12-04T04:30:01;1.10;;;0.60;;
40649;SDS011;26342;42.826;23.992;2023-12-04T04:32:27;1.65;;;0.90;;
40649;SDS011;26342;42.826;23.992;2023-12-04T04:34:53;1.13;;;1.02;;
40649;SDS011;26342;42.826;23.992;2023-12-04T04:37:19;4.32;;;1.73;;
40649;SDS011;26342;42.826;23.992;2023-12-04T04:39:45;3.30;;;1.30;;
40649;SDS011;26342;42.826;23.992;2023-12-04T04:42:10;3.30;;;1.92;;
40649;SDS011;26342;42.826;23.992;2023-12-04T04:44:36;4.93;;;1.85;;
40649;SDS011;26342;42.826;23.992;2023-12-04T04:47:01;2.78;;;1.33;;
40649;SDS011;26342;42.826;23.992;2023-12-04T04:49:27;1.25;;;0.85;;
40649;SDS011;26342;42.826;23.992;2023-12-04T04:51:52;1.92;;;1.15;;
40649;SDS011;26342;42.826;23.992;2023-12-04T04:54:18;2.65;;;1.70;;
40649;SDS011;26342;42.826;23.992;2023-12-04T04:56:44;1.15;;;0.95;;
40649;SDS011;26342;42.826;23.992;2023-12-04T04:59:10;2.40;;;1.38;;
40649;SDS011;26342;42.826;23.992;2023-12-04T05:01:35;1.23;;;0.80;;
40649;SDS011;26342;42.826;23.992;2023-12-04T05:04:01;2.80;;;1.52;;
40649;SDS011;26342;42.826;23.992;2023-12-04T05:06:27;2.95;;;1.30;;
40649;SDS011;26342;42.826;23.992;2023-12-04T05:08:53;5.07;;;1.50;;
40649;SDS011;26342;42.826;23.992;2023-12-04T05:11:19;3.63;;;1.15;;
40649;SDS011;26342;42.826;23.992;2023-12-04T05:13:45;2.38;;;1.25;;
40649;SDS011;26342;42.826;23.992;2023-12-04T05:16:11;1.23;;;0.63;;
40649;SDS011;26342;42.826;23.992;2023-12-04T05:18:37;3.05;;;1.73;;
40649;SDS011;26342;42.826;23.992;2023-12-04T05:21:07;3.65;;;1.88;;
40649;SDS011;26342;42.826;23.992;2023-12-04T05:23:34;5.55;;;2.38;;
40649;SDS011;26342;42.826;23.992;2023-12-04T05:25:59;4.45;;;2.08;;
40649;SDS011;26342;42.826;23.992;2023-12-04T05:28:24;8.88;;;2.63;;
40649;SDS011;26342;42.826;23.992;2023-12-04T05:30:50;7.03;;;3.00;;
40649;SDS011;26342;42.826;23.992;2023-12-04T05:33:15;2.25;;;1.60;;
40649;SDS011;26342;42.826;23.992;2023-12-04T05:35:40;4.00;;;1.95;;
40649;SDS011;26342;42.826;23.992;2023-12-04T05:38:07;3.35;;;1.20;;
40649;SDS011;26342;42.826;23.992;2023-12-04T05:40:33;4.32;;;1.83;;
40649;SDS011;26342;42.826;23.992;2023-12-04T05:42:59;4.25;;;1.92;;
40649;SDS011;26342;42.826;23.992;2023-12-04T05:45:24;4.43;;;1.35;;
40649;SDS011;26342;42.826;23.992;2023-12-04T05:47:50;7.47;;;2.75;;
40649;SDS011;26342;42.826;23.992;2023-12-04T05:50:17;4.95;;;2.70;;
40649;SDS011;26342;42.826;23.992;2023-12-04T05:52:43;4.75;;;2.70;;
40649;SDS011;26342;42.826;23.992;2023-12-04T05:55:08;10.80;;;4.03;;
40649;SDS011;26342;42.826;23.992;2023-12-04T05:57:34;5.50;;;2.95;;
40649;SDS011;26342;42.826;23.992;2023-12-04T06:00:00;2.25;;;1.70;;
40649;SDS011;26342;42.826;23.992;2023-12-04T06:02:26;3.42;;;2.05;;
40649;SDS011;26342;42.826;23.992;2023-12-04T06:04:55;3.13;;;1.35;;
40649;SDS011;26342;42.826;23.992;2023-12-04T06:07:20;1.55;;;1.33;;
40649;SDS011;26342;42.826;23.992;2023-12-04T06:09:46;4.68;;;1.67;;
40649;SDS011;26342;42.826;23.992;2023-12-04T06:12:11;1.55;;;1.25;;
40649;SDS011;26342;42.826;23.992;2023-12-04T06:14:37;2.13;;;1.25;;
40649;SDS011;26342;42.826;23.992;2023-12-04T06:17:02;0.98;;;0.90;;
40649;SDS011;26342;42.826;23.992;2023-12-04T06:19:28;2.38;;;1.73;;
40649;SDS011;26342;42.826;23.992;2023-12-04T06:21:54;2.72;;;1.17;;
40649;SDS011;26342;42.826;23.992;2023-12-04T06:24:20;1.60;;;0.90;;
40649;SDS011;26342;42.826;23.992;2023-12-04T06:26:46;5.55;;;2.05;;
40649;SDS011;26342;42.826;23.992;2023-12-04T06:29:15;4.15;;;2.00;;
40649;SDS011;26342;42.826;23.992;2023-12-04T06:31:41;5.82;;;2.63;;
40649;SDS011;26342;42.826;23.992;2023-12-04T06:34:07;3.78;;;2.30;;
40649;SDS011;26342;42.826;23.992;2023-12-04T06:36:38;7.00;;;3.15;;
40649;SDS011;26342;42.826;23.992;2023-12-04T06:39:09;4.38;;;1.77;;
40649;SDS011;26342;42.826;23.992;2023-12-04T06:41:37;11.38;;;2.50;;
40649;SDS011;26342;42.826;23.992;2023-12-04T06:44:06;3.17;;;2.13;;
40649;SDS011;26342;42.826;23.992;2023-12-04T06:46:32;4.93;;;2.67;;
40649;SDS011;26342;42.826;23.992;2023-12-04T06:49:04;6.43;;;1.73;;
40649;SDS011;26342;42.826;23.992;2023-12-04T06:51:33;7.60;;;1.60;;
40649;SDS011;26342;42.826;23.992;2023-12-04T06:53:58;3.53;;;1.77;;
40649;SDS011;26342;42.826;23.992;2023-12-04T06:56:24;2.65;;;1.35;;
40649;SDS011;26342;42.826;23.992;2023-12-04T06:58:49;2.13;;;1.13;;
40649;SDS011;26342;42.826;23.992;2023-12-04T07:01:14;2.33;;;1.58;;
40649;SDS011;26342;42.826;23.992;2023-12-04T07:03:40;1.95;;;1.33;;
40649;SDS011;26342;42.826;23.992;2023-12-04T07:06:06;2.67;;;1.05;;
40649;SDS011;26342;42.826;23.992;2023-12-04T07:08:31;2.30;;;1.20;;
40649;SDS011;26342;42.826;23.992;2023-12-04T07:10:57;2.90;;;1.98;;
40649;SDS011;26342;42.826;23.992;2023-12-04T07:13:22;7.38;;;4.22;;
40649;SDS011;26342;42.826;23.992;2023-12-04T07:15:48;13.93;;;4.97;;
40649;SDS011;26342;42.826;23.992;2023-12-04T07:18:13;9.15;;;4.90;;
40649;SDS011;26342;42.826;23.992;2023-12-04T07:20:38;12.15;;;4.45;;
40649;SDS011;26342;42.826;23.992;2023-12-04T07:23:04;5.10;;;2.55;;
40649;SDS011;26342;42.826;23.992;2023-12-04T07:25:29;8.95;;;3.35;;
40649;SDS011;26342;42.826;23.992;2023-12-04T07:27:54;6.95;;;2.38;;
40649;SDS011;26342;42.826;23.992;2023-12-04T07:30:20;5.45;;;2.28;;
40649;SDS011;26342;42.826;23.992;2023-12-04T07:32:46;2.95;;;2.40;;
40649;SDS011;26342;42.826;23.992;2023-12-04T07:35:11;5.53;;;3.33;;
40649;SDS011;26342;42.826;23.992;2023-12-04T07:37:37;5.65;;;3.15;;
40649;SDS011;26342;42.826;23.992;2023-12-04T07:40:03;4.38;;;2.30;;
40649;SDS011;26342;42.826;23.992;2023-12-04T07:42:30;3.35;;;2.45;;
40649;SDS011;26342;42.826;23.992;2023-12-04T07:44:56;5.63;;;2.58;;
40649;SDS011;26342;42.826;23.992;2023-12-04T07:47:22;2.90;;;2.20;;
40649;SDS011;26342;42.826;23.992;2023-12-04T07:49:48;2.65;;;1.27;;
40649;SDS011;26342;42.826;23.992;2023-12-04T07:52:14;6.03;;;1.58;;
40649;SDS011;26342;42.826;23.992;2023-12-04T07:54:39;3.65;;;2.28;;
40649;SDS011;26342;42.826;23.992;2023-12-04T07:57:04;1.98;;;1.58;;
40649;SDS011;26342;42.826;23.992;2023-12-04T07:59:30;6.43;;;2.25;;
40649;SDS011;26342;42.826;23.992;2023-12-04T08:01:56;3.70;;;1.98;;
40649;SDS011;26342;42.826;23.992;2023-12-04T08:04:22;1.40;;;1.00;;
40649;SDS011;26342;42.826;23.992;2023-12-04T08:06:47;2.45;;;1.42;;
40649;SDS011;26342;42.826;23.992;2023-12-04T08:09:13;1.80;;;1.00;;
40649;SDS011;26342;42.826;23.992;2023-12-04T08:11:39;0.68;;;0.50;;
40649;SDS011;26342;42.826;23.992;2023-12-04T08:14:05;2.22;;;0.90;;
40649;SDS011;26342;42.826;23.992;2023-12-04T08:16:31;1.25;;;0.88;;
40649;SDS011;26342;42.826;23.992;2023-12-04T08:18:56;0.88;;;0.63;;
40649;SDS011;26342;42.826;23.992;2023-12-04T08:21:21;4.15;;;1.38;;
40649;SDS011;26342;42.826;23.992;2023-12-04T08:23:47;3.75;;;1.98;;
40649;SDS011;26342;42.826;23.992;2023-12-04T08:26:13;4.35;;;2.30;;
40649;SDS011;26342;42.826;23.992;2023-12-04T08:28:41;2.63;;;1.40;;
40649;SDS011;26342;42.826;23.992;2023-12-04T08:31:08;1.33;;;0.93;;
40649;SDS011;26342;42.826;23.992;2023-12-04T08:33:34;1.38;;;1.13;;
40649;SDS011;26342;42.826;23.992;2023-12-04T08:36:00;1.83;;;0.85;;
40649;SDS011;26342;42.826;23.992;2023-12-04T08:38:25;3.53;;;1.33;;
40649;SDS011;26342;42.826;23.992;2023-12-04T08:40:51;1.75;;;1.15;;
40649;SDS011;26342;42.826;23.992;2023-12-04T08:43:16;0.90;;;0.60;;
40649;SDS011;26342;42.826;23.992;2023-12-04T08:45:43;1.27;;;0.70;;
40649;SDS011;26342;42.826;23.992;2023-12-04T08:48:08;1.55;;;0.65;;
40649;SDS011;26342;42.826;23.992;2023-12-04T08:50:35;0.90;;;0.63;;
40649;SDS011;26342;42.826;23.992;2023-12-04T08:53:01;1.70;;;1.20;;
40649;SDS011;26342;42.826;23.992;2023-12-04T08:55:27;3.97;;;1.90;;
40649;SDS011;26342;42.826;23.992;2023-12-04T08:57:53;3.13;;;1.42;;
40649;SDS011;26342;42.826;23.992;2023-12-04T09:00:19;2.10;;;1.65;;
40649;SDS011;26342;42.826;23.992;2023-12-04T09:02:44;2.78;;;1.15;;
40649;SDS011;26342;42.826;23.992;2023-12-04T09:05:09;2.25;;;1.35;;
40649;SDS011;26342;42.826;23.992;2023-12-04T09:07:35;1.17;;;0.75;;
40649;SDS011;26342;42.826;23.992;2023-12-04T09:10:01;1.55;;;1.13;;
40649;SDS011;26342;42.826;23.992;2023-12-04T09:12:27;2.55;;;1.45;;
40649;SDS011;26342;42.826;23.992;2023-12-04T09:14:52;1.73;;;0.50;;
40649;SDS011;26342;42.826;23.992;2023-12-04T09:17:18;1.77;;;0.65;;
40649;SDS011;26342;42.826;23.992;2023-12-04T09:19:43;4.40;;;1.30;;
40649;SDS011;26342;42.826;23.992;2023-12-04T09:22:08;0.30;;;0.30;;
40649;SDS011;26342;42.826;23.992;2023-12-04T09:24:34;0.73;;;0.55;;
40649;SDS011;26342;42.826;23.992;2023-12-04T09:26:59;1.20;;;0.85;;
40649;SDS011;26342;42.826;23.992;2023-12-04T09:29:25;1.15;;;0.77;;
40649;SDS011;26342;42.826;23.992;2023-12-04T09:31:53;1.30;;;0.50;;
40649;SDS011;26342;42.826;23.992;2023-12-04T09:34:19;0.30;;;0.20;;
40649;SDS011;26342;42.826;23.992;2023-12-04T09:36:45;0.63;;;0.50;;
40649;SDS011;26342;42.826;23.992;2023-12-04T09:39:12;0.40;;;0.20;;
40649;SDS011;26342;42.826;23.992;2023-12-04T09:41:37;0.55;;;0.55;;
40649;SDS011;26342;42.826;23.992;2023-12-04T09:44:04;0.47;;;0.47;;
40649;SDS011;26342;42.826;23.992;2023-12-04T09:46:31;1.20;;;1.10;;
40649;SDS011;26342;42.826;23.992;2023-12-04T09:48:59;2.97;;;0.38;;
40649;SDS011;26342;42.826;23.992;2023-12-04T09:51:27;1.70;;;1.13;;
40649;SDS011;26342;42.826;23.992;2023-12-04T09:53:53;1.98;;;0.70;;
40649;SDS011;26342;42.826;23.992;2023-12-04T09:56:22;0.32;;;0.28;;
40649;SDS011;26342;42.826;23.992;2023-12-04T09:58:50;0.73;;;0.73;;
40649;SDS011;26342;42.826;23.992;2023-12-04T10:01:22;1.83;;;0.60;;
40649;SDS011;26342;42.826;23.992;2023-12-04T10:03:49;1.23;;;0.95;;
40649;SDS011;26342;42.826;23.992;2023-12-04T10:06:15;0.85;;;0.43;;
40649;SDS011;26342;42.826;23.992;2023-12-04T10:08:46;3.85;;;0.80;;
40649;SDS011;26342;42.826;23.992;2023-12-04T10:11:12;2.55;;;0.82;;
40649;SDS011;26342;42.826;23.992;2023-12-04T10:13:38;0.68;;;0.68;;
40649;SDS011;26342;42.826;23.992;2023-12-04T10:16:05;0.77;;;0.70;;
40649;SDS011;26342;42.826;23.992;2023-12-04T10:18:31;0.77;;;0.75;;
40649;SDS011;26342;42.826;23.992;2023-12-04T10:20:57;0.52;;;0.47;;
40649;SDS011;26342;42.826;23.992;2023-12-04T10:26:08;2.25;;;0.60;;
40649;SDS011;26342;42.826;23.992;2023-12-04T10:28:36;1.98;;;1.30;;
40649;SDS011;26342;42.826;23.992;2023-12-04T10:31:02;1.42;;;0.70;;
40649;SDS011;26342;42.826;23.992;2023-12-04T10:33:30;1.58;;;0.52;;
40649;SDS011;26342;42.826;23.992;2023-12-04T10:35:56;1.00;;;0.95;;
40649;SDS011;26342;42.826;23.992;2023-12-04T10:38:21;0.22;;;0.22;;
40649;SDS011;26342;42.826;23.992;2023-12-04T10:40:46;1.85;;;0.95;;
40649;SDS011;26342;42.826;23.992;2023-12-04T10:45:45;0.77;;;0.55;;
40649;SDS011;26342;42.826;23.992;2023-12-04T10:48:12;1.55;;;1.20;;
40649;SDS011;26342;42.826;23.992;2023-12-04T10:50:40;2.63;;;1.00;;
40649;SDS011;26342;42.826;23.992;2023-12-04T10:53:07;3.55;;;0.95;;
40649;SDS011;26342;42.826;23.992;2023-12-04T10:55:35;3.53;;;0.85;;
40649;SDS011;26342;42.826;23.992;2023-12-04T10:58:10;0.50;;;0.50;;
40649;SDS011;26342;42.826;23.992;2023-12-04T11:00:39;1.25;;;0.45;;
40649;SDS011;26342;42.826;23.992;2023-12-04T11:03:09;1.10;;;0.85;;
40649;SDS011;26342;42.826;23.992;2023-12-04T11:05:41;1.20;;;0.60;;
40649;SDS011;26342;42.826;23.992;2023-12-04T11:08:07;1.10;;;0.77;;
40649;SDS011;26342;42.826;23.992;2023-12-04T11:10:41;0.88;;;0.80;;
40649;SDS011;26342;42.826;23.992;2023-12-04T11:13:17;1.95;;;0.73;;
40649;SDS011;26342;42.826;23.992;2023-12-04T11:15:48;1.98;;;1.00;;
40649;SDS011;26342;42.826;23.992;2023-12-04T11:18:18;1.00;;;0.85;;
40649;SDS011;26342;42.826;23.992;2023-12-04T11:20:51;1.00;;;0.77;;
40649;SDS011;26342;42.826;23.992;2023-12-04T11:23:19;1.30;;;1.17;;
40649;SDS011;26342;42.826;23.992;2023-12-04T11:25:45;2.72;;;1.20;;
40649;SDS011;26342;42.826;23.992;2023-12-04T11:28:12;2.72;;;0.98;;
40649;SDS011;26342;42.826;23.992;2023-12-04T11:30:39;0.93;;;0.80;;
40649;SDS011;26342;42.826;23.992;2023-12-04T11:33:05;0.88;;;0.63;;
40649;SDS011;26342;42.826;23.992;2023-12-04T11:35:32;2.08;;;0.85;;
40649;SDS011;26342;42.826;23.992;2023-12-04T11:37:58;1.00;;;0.95;;
40649;SDS011;26342;42.826;23.992;2023-12-04T11:40:23;1.30;;;0.52;;
40649;SDS011;26342;42.826;23.992;2023-12-04T11:42:49;0.90;;;0.73;;
40649;SDS011;26342;42.826;23.992;2023-12-04T11:45:18;0.57;;;0.43;;
40649;SDS011;26342;42.826;23.992;2023-12-04T11:47:54;1.05;;;0.65;;
40649;SDS011;26342;42.826;23.992;2023-12-04T11:50:21;0.47;;;0.47;;
40649;SDS011;26342;42.826;23.992;2023-12-04T11:52:49;0.30;;;0.30;;
40649;SDS011;26342;42.826;23.992;2023-12-04T11:55:18;0.45;;;0.45;;
40649;SDS011;26342;42.826;23.992;2023-12-04T11:57:47;1.37;;;0.60;;
40649;SDS011;26342;42.826;23.992;2023-12-04T12:02:48;1.77;;;0.70;;
40649;SDS011;26342;42.826;23.992;2023-12-04T12:05:14;0.85;;;0.60;;
40649;SDS011;26342;42.826;23.992;2023-12-04T12:07:40;1.08;;;0.35;;
40649;SDS011;26342;42.826;23.992;2023-12-04T12:10:05;1.05;;;0.70;;
40649;SDS011;26342;42.826;23.992;2023-12-04T12:12:31;1.10;;;0.47;;
40649;SDS011;26342;42.826;23.992;2023-12-04T12:14:57;1.35;;;0.75;;
40649;SDS011;26342;42.826;23.992;2023-12-04T12:17:23;2.97;;;1.15;;
40649;SDS011;26342;42.826;23.992;2023-12-04T12:19:51;4.30;;;1.33;;
40649;SDS011;26342;42.826;23.992;2023-12-04T12:22:16;0.60;;;0.60;;
40649;SDS011;26342;42.826;23.992;2023-12-04T12:24:42;3.33;;;0.93;;
40649;SDS011;26342;42.826;23.992;2023-12-04T12:27:07;0.82;;;0.80;;
40649;SDS011;26342;42.826;23.992;2023-12-04T12:29:33;1.73;;;0.90;;
40649;SDS011;26342;42.826;23.992;2023-12-04T12:31:59;2.30;;;0.65;;
40649;SDS011;26342;42.826;23.992;2023-12-04T12:34:24;1.02;;;0.47;;
40649;SDS011;26342;42.826;23.992;2023-12-04T12:36:50;1.30;;;1.05;;
40649;SDS011;26342;42.826;23.992;2023-12-04T12:39:16;0.95;;;0.40;;
40649;SDS011;26342;42.826;23.992;2023-12-04T12:41:50;0.93;;;0.85;;
40649;SDS011;26342;42.826;23.992;2023-12-04T12:44:16;2.58;;;1.23;;
40649;SDS011;26342;42.826;23.992;2023-12-04T12:46:41;1.92;;;0.75;;
40649;SDS011;26342;42.826;23.992;2023-12-04T12:49:07;1.50;;;0.93;;
40649;SDS011;26342;42.826;23.992;2023-12-04T12:51:33;1.70;;;1.25;;
40649;SDS011;26342;42.826;23.992;2023-12-04T12:53:58;1.83;;;0.82;;
40649;SDS011;26342;42.826;23.992;2023-12-04T12:56:27;2.13;;;1.27;;
40649;SDS011;26342;42.826;23.992;2023-12-04T12:58:53;2.35;;;1.42;;
40649;SDS011;26342;42.826;23.992;2023-12-04T13:01:18;4.15;;;1.00;;
40649;SDS011;26342;42.826;23.992;2023-12-04T13:03:47;2.33;;;1.75;;
40649;SDS011;26342;42.826;23.992;2023-12-04T13:06:12;2.03;;;0.95;;
40649;SDS011;26342;42.826;23.992;2023-12-04T13:08:38;2.35;;;1.40;;
40649;SDS011;26342;42.826;23.992;2023-12-04T13:11:04;3.10;;;2.33;;
40649;SDS011;26342;42.826;23.992;2023-12-04T13:13:30;0.90;;;0.77;;
40649;SDS011;26342;42.826;23.992;2023-12-04T13:15:57;0.77;;;0.70;;
40649;SDS011;26342;42.826;23.992;2023-12-04T13:18:22;1.95;;;1.38;;
40649;SDS011;26342;42.826;23.992;2023-12-04T13:20:47;3.72;;;1.50;;
40649;SDS011;26342;42.826;23.992;2023-12-04T13:23:13;4.15;;;1.05;;
40649;SDS011;26342;42.826;23.992;2023-12-04T13:25:38;3.85;;;1.75;;
40649;SDS011;26342;42.826;23.992;2023-12-04T13:28:04;5.82;;;2.38;;
40649;SDS011;26342;42.826;23.992;2023-12-04T13:30:29;8.57;;;1.50;;
40649;SDS011;26342;42.826;23.992;2023-12-04T13:32:55;8.38;;;2.17;;
40649;SDS011;26342;42.826;23.992;2023-12-04T13:35:21;2.60;;;1.00;;
40649;SDS011;26342;42.826;23.992;2023-12-04T13:37:46;1.73;;;1.10;;
40649;SDS011;26342;42.826;23.992;2023-12-04T13:40:26;3.33;;;1.77;;
40649;SDS011;26342;42.826;23.992;2023-12-04T13:42:57;1.95;;;1.48;;
40649;SDS011;26342;42.826;23.992;2023-12-04T13:45:41;1.75;;;1.05;;
40649;SDS011;26342;42.826;23.992;2023-12-04T13:48:07;3.92;;;1.67;;
40649;SDS011;26342;42.826;23.992;2023-12-04T13:50:32;5.10;;;1.55;;
40649;SDS011;26342;42.826;23.992;2023-12-04T13:52:58;4.60;;;2.25;;
40649;SDS011;26342;42.826;23.992;2023-12-04T13:55:23;1.73;;;0.98;;
40649;SDS011;26342;42.826;23.992;2023-12-04T13:58:21;0.88;;;0.68;;
40649;SDS011;26342;42.826;23.992;2023-12-04T14:01:09;4.57;;;1.77;;
40649;SDS011;26342;42.826;23.992;2023-12-04T14:03:42;4.32;;;1.83;;
40649;SDS011;26342;42.826;23.992;2023-12-04T14:06:09;4.68;;;2.40;;
40649;SDS011;26342;42.826;23.992;2023-12-04T14:08:35;7.15;;;3.13;;
40649;SDS011;26342;42.826;23.992;2023-12-04T14:11:04;3.38;;;2.58;;
40649;SDS011;26342;42.826;23.992;2023-12-04T14:13:31;6.53;;;3.72;;
40649;SDS011;26342;42.826;23.992;2023-12-04T14:15:57;3.95;;;1.63;;
40649;SDS011;26342;42.826;23.992;2023-12-04T14:18:23;6.20;;;2.50;;
40649;SDS011;26342;42.826;23.992;2023-12-04T14:20:49;4.65;;;2.95;;
40649;SDS011;26342;42.826;23.992;2023-12-04T14:23:14;4.60;;;2.85;;
40649;SDS011;26342;42.826;23.992;2023-12-04T14:25:40;11.25;;;2.72;;
40649;SDS011;26342;42.826;23.992;2023-12-04T14:28:06;8.07;;;2.45;;
40649;SDS011;26342;42.826;23.992;2023-12-04T14:30:32;4.70;;;3.13;;
40649;SDS011;26342;42.826;23.992;2023-12-04T14:32:58;4.43;;;2.45;;
40649;SDS011;26342;42.826;23.992;2023-12-04T14:35:23;4.90;;;2.20;;
40649;SDS011;26342;42.826;23.992;2023-12-04T14:37:49;9.90;;;4.05;;